createdAt,value
2018-09-25T00:06:04.217Z,59.7
2018-09-25T00:16:06.134Z,59.6
2018-09-25T00:26:07.946Z,59.7
2018-09-25T00:36:09.976Z,59.5
2018-09-25T00:46:11.422Z,59.4
2018-09-25T00:56:13.550Z,59.5
2018-09-25T01:06:14.965Z,59.8
2018-09-25T01:16:16.570Z,59.6
2018-09-25T01:26:18.598Z,59.9
2018-09-25T01:36:20.235Z,59.8
2018-09-25T01:46:22.345Z,60.1
2018-09-25T01:56:24.437Z,60
2018-09-25T02:06:26.663Z,60.1
2018-09-25T02:16:28.513Z,60.1
2018-09-25T02:26:30.009Z,60.1
2018-09-25T02:36:31.810Z,60
2018-09-25T02:46:33.752Z,60.1
2018-09-25T02:56:35.480Z,59.9
2018-09-25T03:06:37.331Z,59.8
2018-09-25T03:16:39.892Z,59.8
2018-09-25T03:26:42.018Z,59.9
2018-09-25T03:36:43.716Z,59.6
2018-09-25T03:46:46.065Z,59.6
2018-09-25T03:56:47.847Z,59.7
2018-09-25T04:06:49.891Z,59.6
2018-09-25T04:16:51.785Z,59.7
2018-09-25T04:26:53.759Z,59.7
2018-09-25T04:36:55.439Z,59.7
2018-09-25T04:46:57.368Z,60.2
2018-09-25T04:56:59.259Z,59.8
2018-09-25T05:07:01.033Z,59.8
2018-09-25T05:17:02.945Z,59.8
2018-09-25T05:27:04.879Z,59.7
2018-09-25T05:37:06.703Z,59.6
2018-09-25T05:47:08.922Z,59.6
2018-09-25T05:57:10.476Z,59.5
2018-09-25T06:07:11.932Z,59.5
2018-09-25T06:17:13.771Z,59.5
2018-09-25T06:27:15.648Z,56.7
2018-09-25T06:37:17.453Z,57.5
2018-09-25T06:47:19.718Z,57.9
2018-09-25T06:57:21.353Z,58.1
2018-09-25T07:07:22.936Z,57.8
2018-09-25T07:17:25.185Z,57.7
2018-09-25T07:27:26.866Z,57.5
2018-09-25T07:37:28.695Z,57.1
2018-09-25T07:47:30.466Z,57.2
2018-09-25T07:57:32.552Z,57.3
2018-09-25T08:07:34.224Z,57.3
2018-09-25T08:17:36.050Z,57
2018-09-25T08:27:37.792Z,57
2018-09-25T08:37:40.098Z,57
2018-09-25T08:47:41.562Z,56.9
2018-09-25T08:57:43.811Z,56.9
2018-09-25T09:07:45.529Z,56.6
2018-09-25T09:17:47.308Z,56.7
2018-09-25T09:27:49.208Z,56.4
2018-09-25T09:37:51.097Z,56.6
2018-09-25T09:47:52.908Z,56.5
2018-09-25T09:57:54.740Z,56.9
2018-09-25T10:07:56.294Z,57
2018-09-25T10:17:58.089Z,56.9
2018-09-25T10:27:59.522Z,56.9
2018-09-25T10:38:01.656Z,56.6
2018-09-25T10:48:03.684Z,56.6
2018-09-25T10:58:05.523Z,56.6
2018-09-25T11:08:07.493Z,56.7
2018-09-25T11:18:09.009Z,56.5
2018-09-25T11:28:11.539Z,56.6
2018-09-25T11:38:13.094Z,56.7
2018-09-25T11:48:14.711Z,56.9
2018-09-25T11:58:16.815Z,56.9
2018-09-25T12:08:19.049Z,56.8
2018-09-25T12:18:20.654Z,56.8
2018-09-25T12:28:22.398Z,56.9
2018-09-25T12:38:24.541Z,56.9
2018-09-25T12:48:26.378Z,56.9
2018-09-25T12:58:28.333Z,56.8
2018-09-25T13:08:30.423Z,56.7
2018-09-25T13:18:32.329Z,57
2018-09-25T13:28:33.903Z,57
2018-09-25T13:38:36.065Z,57.1
2018-09-25T13:48:38.014Z,57.2
2018-09-25T13:58:39.568Z,57.1
2018-09-25T14:08:41.668Z,56.9
2018-09-25T14:18:43.705Z,57
2018-09-25T14:28:45.749Z,56.9
2018-09-25T14:38:47.909Z,56.9
2018-09-25T14:48:50.249Z,56.8
2018-09-25T14:58:52.079Z,56.8
2018-09-25T15:08:54.239Z,56.8
2018-09-25T15:18:56.302Z,57
2018-09-25T15:28:57.946Z,56.9
2018-09-25T15:38:59.972Z,56.8
2018-09-25T15:49:01.396Z,57
2018-09-25T15:59:03.386Z,56.8
2018-09-25T16:09:04.843Z,56.8
2018-09-25T16:19:06.838Z,56.6
2018-09-25T16:29:09.112Z,56.4
2018-09-25T16:39:10.495Z,56.2
2018-09-25T16:49:12.299Z,55.9
2018-09-25T16:59:14.310Z,55.7
2018-09-25T17:09:16.701Z,56
2018-09-25T17:19:18.445Z,56
2018-09-25T17:29:20.560Z,55.8
2018-09-25T17:39:23.032Z,56.3
2018-09-25T17:49:24.610Z,56.7
2018-09-25T17:59:26.727Z,56.7
2018-09-25T18:09:28.574Z,56.9
2018-09-25T18:19:31.061Z,57
2018-09-25T18:29:33.217Z,57.1
2018-09-25T18:39:35.373Z,57.3
2018-09-25T18:49:37.702Z,57.4
2018-09-25T18:59:39.521Z,57.7
2018-09-25T19:09:41.253Z,57.9
2018-09-25T19:19:42.811Z,57.7
2018-09-25T19:29:44.562Z,58
2018-09-25T19:39:46.522Z,57.8
2018-09-25T19:49:48.376Z,54.4
2018-09-25T19:59:50.554Z,52.8
2018-09-25T20:09:52.135Z,52
2018-09-25T20:19:54.050Z,51.5
2018-09-25T20:29:55.904Z,51.8
2018-09-25T20:39:57.664Z,53.2
2018-09-25T20:49:59.175Z,54
2018-09-25T21:00:00.752Z,54.6
2018-09-25T21:10:02.444Z,55.1
2018-09-25T21:20:04.084Z,55.6
2018-09-25T21:30:06.034Z,55.9
2018-09-25T21:40:07.803Z,56
2018-09-25T21:50:09.537Z,56.4
2018-09-25T22:00:11.312Z,56.7
2018-09-25T22:10:13.454Z,56.8
2018-09-25T22:20:15.574Z,57
2018-09-25T22:30:17.499Z,57.2
2018-09-25T22:40:19.628Z,57.2
2018-09-25T22:50:21.660Z,57.4
2018-09-25T23:00:23.320Z,57.6
2018-09-25T23:10:25.245Z,57.8
2018-09-25T23:20:26.889Z,58
2018-09-25T23:30:28.437Z,58.1
2018-09-25T23:40:30.023Z,58.2
2018-09-25T23:50:31.475Z,58.3
